Time;durP1;ratioP1;P1;durP2;ratioP2;P2;SDS_P1;SDS_P2;PMS_P1;PMS_P2;Temp;Humidity;BMP_temperature;BMP_pressure;BME280_temperature;BME280_humidity;BME280_pressure;Samples;Min_cycle;Max_cycle;Signal;HPM_P1;HPM_P2
2023/03/24 00:00:22;;;;;;;6.43;4.10;;;;;;;13.46;88.72;97316.66;5017161;28;20085;-92
2023/03/24 00:02:55;;;;;;;6.60;4.45;;;;;;;13.47;88.40;97312.97;5015405;28;20400;-92
2023/03/24 00:05:22;;;;;;;4.53;4.10;;;;;;;13.47;89.33;97322.72;5013716;28;20315;-92
2023/03/24 00:07:48;;;;;;;7.25;4.75;;;;;;;13.39;88.75;97295.72;5032910;28;20061;-92
2023/03/24 00:10:19;;;;;;;5.90;3.97;;;;;;;13.46;89.32;97314.00;5016959;28;20033;-92
2023/03/24 00:12:46;;;;;;;5.35;4.43;;;;;;;13.38;89.37;97317.84;5017570;28;20030;-92
2023/03/24 00:15:20;;;;;;;4.70;4.20;;;;;;;13.36;89.46;97311.19;5015743;28;20037;-92
2023/03/24 00:17:49;;;;;;;5.72;3.92;;;;;;;13.37;89.68;97303.06;5016405;28;20030;-92
2023/03/24 00:20:17;;;;;;;6.32;4.40;;;;;;;13.23;89.63;97279.88;5015994;28;20105;-92
2023/03/24 00:22:47;;;;;;;4.97;4.10;;;;;;;13.34;89.93;97292.19;5016258;28;20113;-91
2023/03/24 00:25:15;;;;;;;5.47;3.65;;;;;;;13.42;89.63;97310.25;5032003;28;20094;-92
2023/03/24 00:27:43;;;;;;;5.85;4.20;;;;;;;13.40;89.99;97309.69;5032121;28;20040;-91
2023/03/24 00:30:12;;;;;;;4.97;3.83;;;;;;;13.35;90.42;97299.06;5033065;28;20496;-92
2023/03/24 00:32:38;;;;;;;4.53;4.07;;;;;;;13.42;90.72;97304.19;5015012;28;20493;-93
2023/03/24 00:35:09;;;;;;;5.20;3.88;;;;;;;13.45;90.69;97298.44;5031867;28;20077;-93
2023/03/24 00:37:38;;;;;;;4.57;3.83;;;;;;;13.45;90.09;97288.72;5015526;28;20026;-93
2023/03/24 00:40:12;;;;;;;6.00;4.15;;;;;;;13.22;90.24;97258.03;5016865;28;20034;-91
2023/03/24 00:42:45;;;;;;;6.80;4.03;;;;;;;13.41;89.83;97282.31;5014785;28;20053;-92
2023/03/24 00:45:18;;;;;;;6.20;3.90;;;;;;;13.47;89.78;97286.63;5032172;28;20044;-92
2023/03/24 00:47:48;;;;;;;4.90;3.70;;;;;;;13.47;89.58;97302.44;5030976;28;20037;-92
2023/03/24 00:50:19;;;;;;;6.07;3.90;;;;;;;13.43;90.08;97280.22;5014699;28;20025;-93
2023/03/24 00:52:47;;;;;;;5.13;3.70;;;;;;;13.44;90.71;97297.66;5016180;28;20044;-93
2023/03/24 00:55:14;;;;;;;6.13;3.60;;;;;;;13.41;91.30;97298.13;5015210;28;20030;-91
2023/03/24 00:57:49;;;;;;;5.22;3.70;;;;;;;13.37;92.61;97281.19;5032284;28;20069;-92
2023/03/24 01:00:24;;;;;;;5.47;3.80;;;;;;;13.47;92.47;97318.25;5015831;28;20029;-91
2023/03/24 01:02:56;;;;;;;3.88;3.50;;;;;;;13.35;93.45;97294.59;5031702;28;20120;-93
2023/03/24 01:05:26;;;;;;;4.50;3.67;;;;;;;13.43;94.53;97297.88;5013412;28;20052;-93
2023/03/24 01:07:57;;;;;;;4.07;3.67;;;;;;;13.30;95.51;97275.25;4998715;28;20026;-92
2023/03/24 01:10:28;;;;;;;4.28;3.88;;;;;;;13.26;95.87;97274.16;5015459;28;20065;-92
2023/03/24 01:12:58;;;;;;;6.78;4.20;;;;;;;13.16;95.88;97271.31;5031973;28;20040;-93
2023/03/24 01:15:35;;;;;;;4.80;4.30;;;;;;;13.23;96.03;97274.63;4998683;28;20435;-93
2023/03/24 01:18:04;;;;;;;4.68;3.85;;;;;;;13.20;96.92;97254.00;5012067;28;20090;-93
2023/03/24 01:20:34;;;;;;;6.28;3.90;;;;;;;13.17;97.31;97241.31;4998258;28;20501;-92
2023/03/24 01:23:04;;;;;;;4.72;4.00;;;;;;;13.06;96.96;97214.78;5030400;28;20056;-92
2023/03/24 01:25:30;;;;;;;6.43;3.92;;;;;;;13.11;95.63;97250.94;5014860;28;20037;-92
2023/03/24 01:27:56;;;;;;;4.30;3.90;;;;;;;13.07;96.91;97248.00;5015171;28;20026;-92
2023/03/24 01:30:28;;;;;;;7.28;4.25;;;;;;;13.11;97.42;97266.75;5015305;28;20033;-92
2023/03/24 01:32:58;;;;;;;4.10;3.70;;;;;;;13.00;98.32;97251.78;5028700;28;20354;-92
2023/03/24 01:35:29;;;;;;;6.57;4.00;;;;;;;12.88;99.27;97241.31;5024963;28;20065;-93
2023/03/24 01:38:05;;;;;;;4.97;4.35;;;;;;;13.00;98.77;97271.00;5014497;28;20029;-93
2023/03/24 01:40:38;;;;;;;4.57;4.10;;;;;;;12.99;98.34;97279.94;5015262;28;20402;-92
2023/03/24 01:43:06;;;;;;;6.40;4.13;;;;;;;13.03;97.86;97270.56;5014807;28;20485;-93
2023/03/24 01:46:01;;;;;;;6.13;4.43;;;;;;;13.10;97.04;97276.47;5015404;28;20034;-93
2023/03/24 01:48:39;;;;;;;4.45;3.92;;;;;;;13.16;96.89;97263.41;5016650;28;20055;-93
2023/03/24 01:51:34;;;;;;;5.53;4.47;;;;;;;13.18;96.74;97269.22;5014868;28;20033;-91
2023/03/24 01:54:17;;;;;;;5.15;4.15;;;;;;;13.04;96.12;97256.34;4998126;28;20037;-92
2023/03/24 01:56:56;;;;;;;5.22;4.38;;;;;;;13.11;97.23;97248.31;5014234;28;20472;-92
2023/03/24 01:59:30;;;;;;;4.40;4.00;;;;;;;13.08;98.24;97252.22;5031591;28;20485;-92
2023/03/24 02:02:02;;;;;;;4.90;4.40;;;;;;;13.11;99.71;97243.84;5015247;28;20116;-92
2023/03/24 02:04:47;;;;;;;5.22;4.38;;;;;;;13.06;98.98;97220.06;5026078;28;20023;-93
2023/03/24 02:08:25;;;;;;;6.15;4.50;;;;;;;13.20;99.59;97227.69;5000579;28;20057;-94
2023/03/24 02:10:56;;;;;;;6.65;4.53;;;;;;;13.18;99.32;97219.19;5014856;28;20053;-91
2023/03/24 02:13:22;;;;;;;5.35;4.57;;;;;;;13.17;98.91;97207.06;5015321;28;20404;-92
2023/03/24 02:16:03;;;;;;;5.32;4.32;;;;;;;13.23;99.23;97206.16;5014313;28;20113;-93
2023/03/24 02:19:11;;;;;;;5.13;4.63;;;;;;;13.04;99.14;97181.84;5030908;28;20034;-92
2023/03/24 02:22:36;;;;;;;6.50;4.55;;;;;;;13.15;99.69;97190.72;5031185;28;20037;-91
2023/03/24 02:25:58;;;;;;;6.18;4.68;;;;;;;13.07;99.46;97178.72;4999086;28;20037;-93
2023/03/24 02:28:47;;;;;;;5.40;4.30;;;;;;;13.12;99.36;97178.81;4997877;28;20495;-91
2023/03/24 02:31:57;;;;;;;5.75;4.55;;;;;;;13.10;98.86;97176.44;4997137;28;20042;-93
2023/03/24 02:34:56;;;;;;;5.40;4.20;;;;;;;13.06;99.61;97170.03;5012197;28;20048;-93
2023/03/24 02:38:02;;;;;;;6.68;4.45;;;;;;;12.99;99.23;97164.13;5029638;28;20033;-92
2023/03/24 02:40:44;;;;;;;5.20;4.00;;;;;;;12.95;99.14;97160.38;5018764;28;20032;-94
2023/03/24 02:43:38;;;;;;;5.95;4.30;;;;;;;12.99;98.78;97164.13;5017659;28;20058;-91
2023/03/24 02:46:41;;;;;;;5.07;4.32;;;;;;;13.03;98.52;97154.72;5018592;28;20022;-93
2023/03/24 02:49:26;;;;;;;5.38;4.00;;;;;;;13.05;98.68;97152.66;4998115;28;20062;-93
2023/03/24 02:52:13;;;;;;;6.53;4.60;;;;;;;12.91;98.56;97125.06;5017562;28;20030;-92
2023/03/24 02:54:56;;;;;;;4.80;4.10;;;;;;;12.92;98.34;97121.38;5017609;28;20041;-92
2023/03/24 02:57:43;;;;;;;6.35;4.50;;;;;;;13.14;98.16;97134.66;5034838;28;20021;-94
2023/03/24 03:00:21;;;;;;;5.30;4.65;;;;;;;13.04;97.75;97140.53;5018160;28;20481;-93
2023/03/24 03:03:03;;;;;;;5.20;4.45;;;;;;;13.09;97.86;97132.72;5017713;28;20038;-94
2023/03/24 03:05:41;;;;;;;5.00;4.47;;;;;;;13.05;97.58;97136.84;5015359;28;20164;-92
2023/03/24 03:08:13;;;;;;;3.95;3.55;;;;;;;13.08;97.29;97114.53;5034029;28;20037;-93
2023/03/24 03:10:45;;;;;;;7.90;4.55;;;;;;;13.09;97.18;97114.28;5037030;28;20065;-93
2023/03/24 03:13:51;;;;;;;5.07;4.30;;;;;;;13.18;96.76;97134.94;5019067;28;20393;-93
2023/03/24 03:16:37;;;;;;;5.15;4.40;;;;;;;13.18;97.14;97124.41;5016658;28;20041;-93
2023/03/24 03:19:18;;;;;;;8.05;4.55;;;;;;;13.20;96.50;97114.47;5032969;28;20037;-94
2023/03/24 03:21:51;;;;;;;7.35;4.43;;;;;;;13.08;96.50;97110.06;5032800;28;20037;-94
2023/03/24 03:24:42;;;;;;;5.50;4.35;;;;;;;13.07;96.46;97103.22;5012781;28;20061;-93
2023/03/24 03:27:21;;;;;;;4.90;4.32;;;;;;;13.16;96.44;97105.44;4997592;28;20462;-93
2023/03/24 03:30:07;;;;;;;5.22;4.20;;;;;;;13.28;96.68;97129.88;4998025;28;20035;-93
2023/03/24 03:32:43;;;;;;;5.28;4.28;;;;;;;13.08;96.29;97094.28;5002842;28;20034;-93
2023/03/24 03:35:21;;;;;;;5.53;4.30;;;;;;;13.20;96.18;97102.09;5033152;28;20050;-93
2023/03/24 03:38:09;;;;;;;4.40;4.00;;;;;;;13.27;96.11;97104.59;5019544;28;20120;-94
2023/03/24 03:40:47;;;;;;;6.32;4.82;;;;;;;13.18;95.98;97087.56;5016188;28;20037;-93
2023/03/24 03:43:16;;;;;;;5.88;4.45;;;;;;;13.21;95.72;97097.66;5016236;28;20087;-92
2023/03/24 03:45:42;;;;;;;5.18;4.25;;;;;;;13.33;95.61;97111.53;5020730;28;20033;-93
2023/03/24 03:48:09;;;;;;;5.05;4.25;;;;;;;13.21;95.43;97084.50;5032151;28;20044;-93
2023/03/24 03:50:38;;;;;;;5.80;4.40;;;;;;;13.21;96.08;97092.38;5015869;28;20544;-92
2023/03/24 03:53:07;;;;;;;6.32;4.70;;;;;;;13.14;97.01;97082.00;5016242;28;20064;-93
2023/03/24 03:55:34;;;;;;;5.07;4.50;;;;;;;13.22;97.43;97104.50;5033315;28;20377;-92
2023/03/24 03:58:03;;;;;;;6.45;4.93;;;;;;;13.30;97.23;97112.00;5015863;28;20040;-93
2023/03/24 04:00:30;;;;;;;7.05;4.82;;;;;;;13.27;97.08;97115.91;5016519;28;20025;-93
2023/03/24 04:03:21;;;;;;;6.90;4.80;;;;;;;13.31;96.70;97113.59;5015784;28;20033;-93
2023/03/24 04:06:07;;;;;;;5.53;4.55;;;;;;;13.24;96.60;97107.69;5031763;28;20030;-93
2023/03/24 04:08:44;;;;;;;6.72;5.30;;;;;;;13.20;96.51;97096.81;5016665;28;20520;-93
2023/03/24 04:11:54;;;;;;;6.90;4.78;;;;;;;13.27;96.49;97108.03;5032967;28;20037;-94
2023/03/24 04:14:56;;;;;;;7.50;4.85;;;;;;;13.20;96.54;97101.31;5014108;28;20031;-92
2023/03/24 04:18:04;;;;;;;5.32;4.47;;;;;;;13.28;96.33;97119.34;5013502;28;20034;-93
2023/03/24 04:20:45;;;;;;;7.63;5.00;;;;;;;13.28;95.55;97114.09;5012609;28;20038;-93
2023/03/24 04:23:40;;;;;;;5.38;4.70;;;;;;;13.29;95.76;97110.41;4999895;28;20397;-94
2023/03/24 04:26:33;;;;;;;5.28;4.53;;;;;;;13.32;95.38;97109.94;5015481;28;20026;-92
2023/03/24 04:29:32;;;;;;;5.32;4.82;;;;;;;13.33;94.95;97107.06;5015188;28;20032;-93
2023/03/24 04:32:20;;;;;;;6.85;4.72;;;;;;;13.34;94.92;97113.13;5031647;28;20029;-93
2023/03/24 04:35:00;;;;;;;5.85;4.90;;;;;;;13.32;94.70;97121.28;5015158;28;20076;-93
2023/03/24 04:37:32;;;;;;;5.55;4.93;;;;;;;13.25;94.22;97088.22;4999215;28;20046;-92
2023/03/24 04:40:04;;;;;;;4.45;4.03;;;;;;;13.28;94.58;97090.38;5030612;28;20026;-92
2023/03/24 04:42:44;;;;;;;8.07;4.90;;;;;;;13.37;93.95;97104.72;5015131;28;20026;-93
2023/03/24 04:45:15;;;;;;;5.95;4.80;;;;;;;13.25;94.00;97098.75;5015287;28;20029;-92
2023/03/24 04:47:49;;;;;;;7.90;5.50;;;;;;;13.19;93.64;97073.34;5015315;28;20083;-94
2023/03/24 04:50:44;;;;;;;5.60;4.97;;;;;;;13.22;93.49;97080.81;4999904;28;20042;-93
2023/03/24 04:53:10;;;;;;;6.72;4.88;;;;;;;13.13;93.50;97075.94;4999333;28;20053;-93
2023/03/24 04:56:00;;;;;;;6.05;4.68;;;;;;;13.34;93.06;97086.78;4999555;28;20040;-93
2023/03/24 04:58:28;;;;;;;5.15;4.60;;;;;;;13.29;92.95;97084.88;5031360;28;20034;-93
2023/03/24 05:00:57;;;;;;;7.75;5.05;;;;;;;13.27;93.06;97080.91;5031864;28;20532;-93
2023/03/24 05:03:28;;;;;;;6.15;5.00;;;;;;;13.34;92.51;97089.41;5016318;28;20030;-93
2023/03/24 05:05:54;;;;;;;6.53;4.80;;;;;;;13.35;92.37;97083.09;5032130;28;20026;-94
2023/03/24 05:08:22;;;;;;;6.30;4.72;;;;;;;13.38;93.50;97080.00;5030826;28;20036;-93
2023/03/24 05:10:53;;;;;;;5.82;5.15;;;;;;;13.17;94.67;97046.47;5031598;28;20107;-93
2023/03/24 05:13:18;;;;;;;5.68;4.80;;;;;;;13.11;94.96;97033.25;5031105;28;20033;-91
2023/03/24 05:15:45;;;;;;;6.40;4.70;;;;;;;13.34;94.78;97061.25;5012541;28;20145;-92
2023/03/24 05:18:10;;;;;;;6.70;4.50;;;;;;;13.24;94.84;97066.34;5028859;28;20062;-93
2023/03/24 05:20:36;;;;;;;5.95;4.63;;;;;;;13.17;94.50;97042.00;5022206;28;20091;-93
2023/03/24 05:23:02;;;;;;;6.00;4.55;;;;;;;13.32;94.91;97062.53;5013774;28;20120;-93
2023/03/24 05:25:28;;;;;;;5.35;4.72;;;;;;;13.19;94.19;97055.72;5015491;28;20029;-92
2023/03/24 05:27:56;;;;;;;5.70;4.63;;;;;;;13.25;94.34;97057.41;5015366;28;20021;-92
2023/03/24 05:30:22;;;;;;;6.90;4.38;;;;;;;13.27;94.15;97076.41;5014437;28;20030;-92
2023/03/24 05:32:50;;;;;;;5.47;4.80;;;;;;;13.25;93.45;97061.88;5015059;28;20033;-93
2023/03/24 05:35:16;;;;;;;6.32;4.68;;;;;;;13.32;93.08;97070.44;5030777;28;20397;-93
2023/03/24 05:37:44;;;;;;;5.85;4.70;;;;;;;13.30;91.97;97075.13;5016491;28;20481;-93
2023/03/24 05:40:14;;;;;;;5.25;4.75;;;;;;;13.47;91.83;97094.34;5016887;28;20432;-93
2023/03/24 05:42:43;;;;;;;5.47;4.78;;;;;;;13.34;91.52;97078.88;5034402;28;20037;-93
2023/03/24 05:45:10;;;;;;;6.78;4.60;;;;;;;13.42;90.71;97094.25;5015639;28;20125;-93
2023/03/24 05:47:37;;;;;;;5.53;4.90;;;;;;;13.41;89.91;97082.13;5031411;28;20109;-93
2023/03/24 05:50:03;;;;;;;5.53;4.65;;;;;;;13.51;90.10;97079.66;4999575;28;20128;-92
2023/03/24 05:52:32;;;;;;;8.57;4.97;;;;;;;13.54;89.86;97087.06;5029189;28;20041;-92
2023/03/24 05:55:00;;;;;;;5.30;4.80;;;;;;;13.53;89.94;97090.75;5031947;28;20072;-92
2023/03/24 05:57:29;;;;;;;5.75;4.78;;;;;;;13.64;89.96;97113.56;5030893;28;20038;-93
2023/03/24 05:59:56;;;;;;;6.75;4.93;;;;;;;13.59;89.89;97088.97;5012223;28;20057;-94
2023/03/24 06:02:23;;;;;;;7.43;4.97;;;;;;;13.54;90.07;97102.06;5011499;28;20026;-93
2023/03/24 06:04:50;;;;;;;5.90;4.97;;;;;;;13.70;90.72;97137.34;5012059;28;20081;-93
2023/03/24 06:07:29;;;;;;;6.22;4.75;;;;;;;13.57;89.37;97114.78;5011932;28;20023;-93
2023/03/24 06:10:06;;;;;;;7.72;5.10;;;;;;;13.60;90.08;97115.06;5019353;28;20080;-92
2023/03/24 06:12:32;;;;;;;6.18;4.65;;;;;;;13.65;89.50;97109.88;5035604;28;20017;-92
2023/03/24 06:14:59;;;;;;;5.47;4.43;;;;;;;13.69;89.96;97119.94;5018974;28;20040;-92
2023/03/24 06:17:30;;;;;;;6.22;4.85;;;;;;;13.79;89.19;97120.06;5036018;28;20397;-93
2023/03/24 06:20:12;;;;;;;5.78;4.93;;;;;;;13.82;88.75;97132.75;5017639;28;20111;-93
2023/03/24 06:22:43;;;;;;;7.25;4.45;;;;;;;13.84;88.06;97128.03;5034434;28;20048;-92
2023/03/24 06:25:10;;;;;;;6.13;4.45;;;;;;;13.71;87.70;97118.66;5018586;28;20034;-92
2023/03/24 06:27:37;;;;;;;6.05;5.00;;;;;;;13.84;87.40;97139.38;5021419;28;20080;-93
2023/03/24 06:30:07;;;;;;;7.45;4.70;;;;;;;13.82;87.16;97124.84;5031162;28;20037;-93
2023/03/24 06:32:37;;;;;;;6.75;4.65;;;;;;;13.96;86.77;97147.16;5039944;28;20034;-92
2023/03/24 06:35:09;;;;;;;4.32;3.92;;;;;;;13.94;85.83;97149.25;5021937;28;20041;-93
2023/03/24 06:37:40;;;;;;;5.40;4.30;;;;;;;13.78;85.58;97134.28;5029375;28;20038;-94
2023/03/24 06:43:41;;;;;;;6.00;4.03;;;;;;;13.88;86.06;97153.66;5001755;28;20026;-93
2023/03/24 06:46:09;;;;;;;5.85;4.18;;;;;;;13.95;85.84;97166.66;5015642;28;20022;-93
2023/03/24 06:48:38;;;;;;;5.18;4.22;;;;;;;13.96;86.14;97173.53;5032144;28;20034;-92
2023/03/24 06:51:07;;;;;;;5.90;3.72;;;;;;;13.85;85.76;97163.88;5016924;28;20031;-94
2023/03/24 06:53:32;;;;;;;5.70;3.88;;;;;;;13.81;85.65;97166.22;5030330;28;20042;-93
2023/03/24 06:55:58;;;;;;;5.13;3.88;;;;;;;13.96;84.59;97189.34;5013124;28;20022;-93
2023/03/24 06:58:27;;;;;;;7.03;4.00;;;;;;;13.93;84.91;97179.31;5036820;28;20544;-92
2023/03/24 07:00:56;;;;;;;5.15;4.40;;;;;;;13.88;85.24;97187.13;5014778;28;20186;-93
2023/03/24 07:03:27;;;;;;;5.97;4.10;;;;;;;13.86;86.00;97173.41;5017684;28;20022;-93
2023/03/24 07:05:54;;;;;;;4.97;3.83;;;;;;;13.79;88.80;97175.41;5016728;28;20085;-91
2023/03/24 07:08:29;;;;;;;4.00;3.30;;;;;;;13.86;89.79;97194.50;5033351;28;20477;-94
2023/03/24 07:11:01;;;;;;;4.03;3.60;;;;;;;13.75;91.67;97192.75;5027739;28;20047;-91
2023/03/24 07:13:29;;;;;;;4.88;3.42;;;;;;;13.68;92.70;97195.56;5022951;28;20041;-92
2023/03/24 07:15:55;;;;;;;4.40;3.63;;;;;;;13.79;93.18;97222.84;5035786;28;20030;-94
2023/03/24 07:18:31;;;;;;;5.22;3.75;;;;;;;13.61;93.99;97192.25;5019967;28;20029;-94
2023/03/24 07:20:59;;;;;;;3.92;3.53;;;;;;;13.71;95.16;97220.63;5020004;28;20547;-94
2023/03/24 07:23:37;;;;;;;;;;;;;;;;;;;;;
2023/03/24 07:26:06;;;;;;;3.42;3.05;;;;;;;13.63;97.55;97212.09;5021862;28;20469;-94
2023/03/24 07:28:34;;;;;;;3.75;2.97;;;;;;;13.61;97.70;97206.28;5008170;28;20030;-95
2023/03/24 07:31:40;;;;;;;4.82;3.28;;;;;;;13.44;98.70;97191.50;5006940;28;20747;-95
2023/03/24 07:34:35;;;;;;;;;;;;;;;;;;;;;
2023/03/24 07:37:18;;;;;;;4.20;2.80;;;;;;;13.50;100.00;97222.94;5041061;28;20092;-96
2023/03/24 07:40:10;;;;;;;4.80;2.70;;;;;;;13.42;100.00;97225.16;5022662;28;20049;-93
2023/03/24 07:43:12;;;;;;;;;;;;;;;;;;;;;
2023/03/24 07:45:42;;;;;;;2.53;1.90;;;;;;;13.19;99.22;97200.53;5020963;28;20068;-93
2023/03/24 07:48:15;;;;;;;3.05;2.05;;;;;;;13.30;99.60;97217.34;5020191;28;20040;-95
2023/03/24 07:50:41;;;;;;;2.40;1.90;;;;;;;13.26;99.94;97206.50;5021002;28;20084;-94
2023/03/24 07:53:10;;;;;;;3.22;2.00;;;;;;;13.42;100.00;97220.69;5005657;28;20029;-95
2023/03/24 07:55:46;;;;;;;2.13;1.88;;;;;;;13.45;99.12;97207.06;5020291;28;20026;-94
2023/03/24 07:58:15;;;;;;;2.03;1.85;;;;;;;13.51;100.00;97219.28;5019142;28;20109;-92
2023/03/24 08:00:43;;;;;;;2.67;2.20;;;;;;;13.58;99.09;97198.03;5001678;28;20038;-91
2023/03/24 08:03:15;;;;;;;2.35;2.10;;;;;;;13.63;98.38;97204.19;5015307;28;20478;-93
2023/03/24 08:05:46;;;;;;;2.53;2.00;;;;;;;13.79;100.00;97217.56;4997601;28;20394;-94
2023/03/24 08:08:12;;;;;;;2.75;2.10;;;;;;;13.79;98.06;97217.56;5016317;28;20033;-92
2023/03/24 08:10:38;;;;;;;3.25;2.10;;;;;;;13.84;97.76;97215.00;5017497;28;20018;-93
2023/03/24 08:13:06;;;;;;;3.05;2.13;;;;;;;13.87;96.55;97230.34;5021837;28;20029;-93
2023/03/24 08:15:36;;;;;;;3.10;1.70;;;;;;;13.71;97.65;97207.44;5022458;28;20049;-92
2023/03/24 08:18:02;;;;;;;2.20;1.90;;;;;;;13.72;97.15;97209.81;5037775;28;20042;-93
2023/03/24 08:20:28;;;;;;;1.88;1.75;;;;;;;13.78;98.66;97208.06;5024290;28;20389;-92
2023/03/24 08:22:55;;;;;;;2.08;1.90;;;;;;;13.81;96.93;97207.59;5037427;28;20109;-93
2023/03/24 08:25:24;;;;;;;2.65;1.92;;;;;;;13.93;100.00;97211.72;5018439;28;20037;-93
2023/03/24 08:27:51;;;;;;;2.40;1.90;;;;;;;13.90;97.98;97201.66;5015756;28;20030;-92
2023/03/24 08:30:23;;;;;;;3.53;1.98;;;;;;;14.04;99.69;97223.22;5033165;28;20025;-93
2023/03/24 08:32:56;;;;;;;2.25;1.95;;;;;;;14.08;97.70;97229.59;5017072;28;20090;-94
2023/03/24 08:35:31;;;;;;;2.10;1.90;;;;;;;13.97;97.53;97219.94;5017954;28;20409;-94
2023/03/24 08:38:00;;;;;;;2.10;1.90;;;;;;;13.92;98.78;97217.25;5017942;28;20121;-93
2023/03/24 08:40:28;;;;;;;1.90;1.70;;;;;;;13.75;97.64;97213.84;5018982;28;20033;-93
2023/03/24 08:43:25;;;;;;;;;;;;;;;;;;;;;
2023/03/24 08:46:01;;;;;;;2.03;1.83;;;;;;;13.73;100.00;97236.97;5019110;28;20083;-94
2023/03/24 08:48:30;;;;;;;2.10;1.90;;;;;;;13.63;100.00;97230.53;5035453;28;20031;-93
2023/03/24 08:51:17;;;;;;;2.30;1.70;;;;;;;13.81;99.08;97250.56;5019148;28;20032;-93
2023/03/24 08:53:56;;;;;;;1.90;1.77;;;;;;;13.89;99.64;97230.91;5033349;28;20040;-93
2023/03/24 08:56:29;;;;;;;2.97;1.60;;;;;;;13.95;100.00;97218.59;5016678;28;20034;-93
2023/03/24 08:59:00;;;;;;;2.47;1.80;;;;;;;14.00;98.01;97223.94;5017046;28;20068;-94
2023/03/24 09:01:35;;;;;;;2.53;1.70;;;;;;;14.07;98.85;97212.19;5013671;28;20065;-95
2023/03/24 09:04:04;;;;;;;2.45;1.90;;;;;;;14.23;98.99;97241.41;4999829;28;20030;-92
2023/03/24 09:06:51;;;;;;;3.05;1.77;;;;;;;14.36;100.00;97235.78;5030749;28;20038;-92
2023/03/24 09:09:32;;;;;;;2.92;2.15;;;;;;;14.08;99.15;97232.22;5031485;28;20037;-93
2023/03/24 09:12:00;;;;;;;3.63;1.83;;;;;;;14.25;100.00;97255.13;5033542;28;20034;-93
2023/03/24 09:14:26;;;;;;;2.13;1.88;;;;;;;14.12;100.00;97230.72;5032969;28;20046;-94
2023/03/24 09:16:52;;;;;;;2.45;1.80;;;;;;;14.00;100.00;97221.31;5015608;28;20389;-93
2023/03/24 09:19:18;;;;;;;2.45;1.92;;;;;;;14.20;100.00;97254.00;5031822;28;20057;-92
2023/03/24 09:21:48;;;;;;;2.58;2.30;;;;;;;14.08;100.00;97240.13;5031388;28;20057;-93
2023/03/24 09:24:17;;;;;;;2.30;2.10;;;;;;;14.10;100.00;97232.81;5014756;28;20277;-94
2023/03/24 09:26:42;;;;;;;2.78;2.53;;;;;;;14.15;100.00;97235.50;4997873;28;20485;-93
2023/03/24 09:29:08;;;;;;;2.92;2.60;;;;;;;14.20;100.00;97230.28;5015436;28;20025;-92
2023/03/24 09:31:34;;;;;;;4.85;2.72;;;;;;;14.01;100.00;97218.41;4998821;28;20124;-92
2023/03/24 09:34:00;;;;;;;2.90;2.55;;;;;;;14.01;100.00;97218.41;5015792;28;20037;-92
2023/03/24 09:36:29;;;;;;;4.65;2.90;;;;;;;14.14;100.00;97236.53;4998639;28;20048;-91
2023/03/24 09:38:55;;;;;;;3.78;3.10;;;;;;;14.14;100.00;97207.53;5015354;28;20029;-93
2023/03/24 09:41:29;;;;;;;3.28;2.97;;;;;;;14.29;100.00;97214.06;5032320;28;20555;-93
2023/03/24 09:44:25;;;;;;;4.53;3.25;;;;;;;14.57;100.00;97235.00;5031645;28;20125;-92
2023/03/24 09:47:03;;;;;;;4.22;3.25;;;;;;;14.46;100.00;97212.16;5015255;28;20034;-93
2023/03/24 09:49:39;;;;;;;3.85;3.15;;;;;;;14.40;100.00;97215.78;5017089;28;20045;-95
2023/03/24 09:52:11;;;;;;;3.17;2.75;;;;;;;14.55;100.00;97220.47;5013622;28;20722;-91
2023/03/24 09:54:54;;;;;;;3.53;2.80;;;;;;;14.49;100.00;97222.25;5013810;28;20057;-92
2023/03/24 09:57:36;;;;;;;3.30;2.83;;;;;;;14.58;100.00;97207.59;5015980;28;20060;-92
2023/03/24 10:00:28;;;;;;;;;;;;;;;;;;;;;
2023/03/24 10:03:18;;;;;;;2.97;2.65;;;;;;;15.25;100.00;97214.34;5014771;28;20412;-92
2023/03/24 10:06:21;;;;;;;3.72;3.30;;;;;;;15.01;100.00;97245.53;5028401;28;20030;-89
2023/03/24 10:09:08;;;;;;;4.22;2.95;;;;;;;15.13;100.00;97219.78;4992611;28;20042;-90
2023/03/24 10:12:17;;;;;;;3.88;2.78;;;;;;;15.50;100.00;97219.03;5029985;28;20170;-92
2023/03/24 10:15:18;;;;;;;;;;;;;;;;;;;;;
2023/03/24 10:18:50;;;;;;;3.65;3.00;;;;;;;15.86;100.00;97237.84;5019516;28;20037;-93
2023/03/24 10:21:30;;;;;;;3.35;2.92;;;;;;;15.69;100.00;97222.13;5018467;28;20026;-91
2023/03/24 10:24:18;;;;;;;3.17;2.88;;;;;;;15.76;99.25;97228.78;5015170;28;20117;-92
2023/03/24 10:27:35;;;;;;;;;;;;;;;;;;;;;
2023/03/24 10:30:22;;;;;;;3.40;2.78;;;;;;;15.64;100.00;97232.66;5015044;28;20030;-91
2023/03/24 10:33:07;;;;;;;3.08;2.78;;;;;;;15.84;100.00;97234.66;5016600;28;20408;-93
2023/03/24 10:36:00;;;;;;;3.17;2.60;;;;;;;15.81;100.00;97241.25;5013450;28;20069;-91
2023/03/24 10:38:41;;;;;;;3.65;2.45;;;;;;;15.48;98.00;97205.28;5014451;28;20477;-91
2023/03/24 10:41:20;;;;;;;3.00;2.70;;;;;;;15.56;99.31;97222.53;5016871;28;20038;-92
2023/03/24 10:44:06;;;;;;;2.83;2.50;;;;;;;15.63;99.83;97221.28;5033591;28;20037;-88
2023/03/24 10:46:34;;;;;;;2.70;2.50;;;;;;;15.52;98.39;97203.72;5032943;28;20440;-91
2023/03/24 10:49:18;;;;;;;2.75;2.28;;;;;;;15.89;99.98;97213.53;5013900;28;20033;-91
2023/03/24 10:52:12;;;;;;;;;;;;;;;;;;;;;
2023/03/24 10:55:06;;;;;;;2.65;2.17;;;;;;;15.65;96.25;97221.84;5026190;28;20462;-91
2023/03/24 10:58:01;;;;;;;2.70;2.40;;;;;;;15.72;97.12;97235.63;5012856;28;20045;-91
2023/03/24 11:00:38;;;;;;;3.47;2.10;;;;;;;15.48;98.90;97226.44;5013681;28;20466;-87
2023/03/24 11:03:45;;;;;;;;;;;;;;;;;;;;;
2023/03/24 11:06:55;;;;;;;2.78;1.95;;;;;;;15.36;96.37;97244.28;5015166;28;20034;-89
2023/03/24 11:09:24;;;;;;;2.33;2.08;;;;;;;15.11;96.53;97221.84;4996548;28;20030;-89
2023/03/24 11:11:51;;;;;;;2.47;2.25;;;;;;;15.12;97.57;97243.81;5018752;28;20034;-91
2023/03/24 11:14:49;;;;;;;3.92;2.13;;;;;;;15.12;98.80;97226.13;5014523;28;20495;-90
2023/03/24 11:17:41;;;;;;;2.25;1.95;;;;;;;15.40;98.55;97230.31;5015312;28;20037;-89
2023/03/24 11:20:28;;;;;;;2.65;1.95;;;;;;;15.45;96.73;97221.63;5016173;28;20052;-89
2023/03/24 11:23:44;;;;;;;2.20;2.00;;;;;;;15.44;96.63;97209.47;5016533;28;20480;-88
2023/03/24 11:26:32;;;;;;;2.10;1.90;;;;;;;15.52;96.55;97224.84;4994184;28;20034;-89
2023/03/24 11:29:14;;;;;;;2.47;2.00;;;;;;;15.32;96.78;97224.69;4996843;28;20086;-89
2023/03/24 11:32:10;;;;;;;2.58;2.20;;;;;;;15.26;97.74;97223.84;5011243;28;20034;-90
2023/03/24 11:34:55;;;;;;;2.53;2.10;;;;;;;15.42;97.36;97211.59;5008392;28;20393;-90
2023/03/24 11:37:40;;;;;;;4.22;2.20;;;;;;;15.42;95.90;97203.66;5015096;28;20065;-89
2023/03/24 11:40:23;;;;;;;2.35;2.10;;;;;;;15.28;95.40;97184.75;5016131;28;20504;-90
2023/03/24 11:43:27;;;;;;;2.38;2.10;;;;;;;15.46;95.42;97184.38;5011753;28;20045;-89
2023/03/24 11:46:19;;;;;;;;;;;;;;;;;;;;;
2023/03/24 11:49:14;;;;;;;2.65;2.25;;;;;;;15.67;95.16;97201.22;5027779;28;20037;-89
2023/03/24 11:52:24;;;;;;;1.75;1.65;;;;;;;15.71;95.06;97209.44;5015599;28;20029;-90
2023/03/24 11:54:52;;;;;;;2.97;2.30;;;;;;;15.60;96.18;97197.97;5031244;28;20029;-89
2023/03/24 11:57:50;;;;;;;2.25;2.05;;;;;;;15.72;94.17;97190.69;5014590;28;20046;-91
2023/03/24 12:00:51;;;;;;;2.22;2.03;;;;;;;15.59;96.52;97190.28;5015914;28;20030;-90
2023/03/24 12:04:05;;;;;;;2.60;2.10;;;;;;;15.74;95.73;97199.16;5029928;28;20036;-89
2023/03/24 12:07:39;;;;;;;;;;;;;;;;;;;;;
2023/03/24 12:11:09;;;;;;;5.57;2.15;;;;;;;15.79;93.23;97175.41;5030652;28;20029;-88
2023/03/24 12:13:41;;;;;;;2.65;2.30;;;;;;;15.61;95.74;97165.22;5018216;28;20030;-88
2023/03/24 12:16:21;;;;;;;2.17;1.95;;;;;;;15.32;92.96;97153.38;5011326;28;20035;-91
2023/03/24 12:19:24;;;;;;;2.80;1.90;;;;;;;15.35;94.66;97158.13;5031265;28;20125;-89
2023/03/24 12:22:16;;;;;;;2.45;1.73;;;;;;;15.29;93.70;97154.66;4997928;28;20033;-92
2023/03/24 12:25:40;;;;;;;1.60;1.50;;;;;;;15.47;94.17;97172.78;5014756;28;20052;-88
2023/03/24 12:31:11;;;;;;;2.17;1.80;;;;;;;15.48;90.92;97157.72;5022223;28;20034;-90
2023/03/24 12:33:59;;;;;;;1.85;1.60;;;;;;;15.38;92.30;97136.50;5009790;28;20034;-91
2023/03/24 12:36:47;;;;;;;1.90;1.80;;;;;;;15.47;91.65;97140.25;5005022;28;20141;-91
2023/03/24 12:39:49;;;;;;;3.35;1.70;;;;;;;15.66;90.28;97143.34;5004128;28;20029;-88
2023/03/24 12:42:45;;;;;;;1.67;1.48;;;;;;;15.82;91.69;97147.66;5013194;28;20096;-89
2023/03/24 12:46:48;;;;;;;;;;;;;;;;;;;;;
2023/03/24 12:50:16;;;;;;;2.00;1.90;;;;;;;15.34;91.09;97122.19;5001172;28;20418;-91